createdAt,value
2023-12-08T00:00:24.050Z,100019.06
2023-12-08T00:03:25.594Z,100022.53
2023-12-08T00:06:27.106Z,100017.34
2023-12-08T00:09:28.593Z,100006.09
2023-12-08T00:12:30.081Z,100006.97
2023-12-08T00:15:32.053Z,100016.47
2023-12-08T00:18:33.724Z,100016.47
2023-12-08T00:21:35.251Z,100001.75
2023-12-08T00:24:36.785Z,99992.22
2023-12-08T00:27:38.223Z,99957.56
2023-12-08T00:30:39.666Z,99951.41
2023-12-08T00:33:41.337Z,99962.81
2023-12-08T00:36:43.035Z,99981.91
2023-12-08T00:39:44.808Z,99978.44
2023-12-08T00:42:46.287Z,99962.69
2023-12-08T00:45:48.286Z,99953.13
2023-12-08T00:48:49.912Z,99968.78
2023-12-08T00:51:51.482Z,99979.25
2023-12-08T00:54:53.242Z,99974.91
2023-12-08T00:57:54.689Z,99967.97
2023-12-08T01:00:56.252Z,99961.88
2023-12-08T01:03:57.771Z,99959.25
2023-12-08T01:06:59.277Z,99923.66
2023-12-08T01:10:00.703Z,99919.31
2023-12-08T01:13:02.142Z,99920.13
2023-12-08T01:16:07.769Z,99920.94
2023-12-08T01:19:11.833Z,99912.22
2023-12-08T01:22:13.405Z,99916.59
2023-12-08T01:25:14.926Z,99916.53
2023-12-08T01:28:16.464Z,99918.31
2023-12-08T01:31:17.970Z,99926.91
2023-12-08T01:34:19.613Z,99918.31
2023-12-08T01:37:21.300Z,99914.72
2023-12-08T01:40:22.721Z,99922.53
2023-12-08T01:43:24.205Z,99924.19
2023-12-08T01:46:25.856Z,99933.81
2023-12-08T01:49:27.472Z,99928.66
2023-12-08T01:52:29.066Z,99926.84
2023-12-08T01:55:31.317Z,99935.56
2023-12-08T01:58:32.799Z,99945.03
2023-12-08T02:01:34.569Z,99941.63
2023-12-08T02:04:36.132Z,99950.38
2023-12-08T02:07:37.599Z,99945.09
2023-12-08T02:10:39.068Z,99940.69
2023-12-08T02:13:42.261Z,99951.94
2023-12-08T02:16:54.137Z,99945.84
2023-12-08T02:19:56.778Z,99949.34
2023-12-08T02:22:58.406Z,99942.41
2023-12-08T02:25:59.928Z,99948.50
2023-12-08T02:29:01.628Z,99938.06
2023-12-08T02:32:10.967Z,99944.16
2023-12-08T02:35:14.406Z,99939.75
2023-12-08T02:38:20.124Z,99942.09
2023-12-08T02:41:21.726Z,99942.09
2023-12-08T02:44:23.254Z,99940.50
2023-12-08T02:47:25.181Z,99940.47
2023-12-08T02:50:26.816Z,99933.59
2023-12-08T02:53:28.248Z,99920.59
2023-12-08T02:56:29.718Z,99937.03
2023-12-08T02:59:31.218Z,99936.22
2023-12-08T03:02:32.742Z,99938.84
2023-12-08T03:05:34.376Z,99925.81
2023-12-08T03:08:36.847Z,99921.44
2023-12-08T03:11:38.416Z,99926.53
2023-12-08T03:14:39.880Z,99906.59
2023-12-08T03:17:41.371Z,99907.34
2023-12-08T03:20:42.870Z,99909.97
2023-12-08T03:23:44.344Z,99890.16
2023-12-08T03:26:46.801Z,99869.41
2023-12-08T03:29:48.379Z,99865.81
2023-12-08T03:32:50.060Z,99857.19
2023-12-08T03:35:51.676Z,99865.78
2023-12-08T03:38:53.167Z,99858.91
2023-12-08T03:41:54.704Z,99842.28
2023-12-08T03:44:56.256Z,99857.91
2023-12-08T03:47:57.920Z,99878.72
2023-12-08T03:50:59.576Z,99871.00
2023-12-08T03:54:01.274Z,99859.69
2023-12-08T03:57:03.173Z,99856.16
2023-12-08T04:00:05.954Z,99861.44
2023-12-08T04:03:07.498Z,99861.44
2023-12-08T04:06:09.135Z,99867.50
2023-12-08T04:09:10.765Z,99869.28
2023-12-08T04:12:12.385Z,99868.34
2023-12-08T04:15:14.055Z,99863.00
2023-12-08T04:18:15.673Z,99854.44
2023-12-08T04:21:20.543Z,99851.03
2023-12-08T04:24:22.065Z,99852.03
2023-12-08T04:27:23.931Z,99856.25
2023-12-08T04:30:25.592Z,99858.75
2023-12-08T04:33:27.156Z,99866.72
2023-12-08T04:36:28.806Z,99871.06
2023-12-08T04:39:30.389Z,99870.94
2023-12-08T04:42:32.009Z,99882.31
2023-12-08T04:45:33.670Z,99884.97
2023-12-08T04:48:35.396Z,99887.50
2023-12-08T04:51:36.903Z,99896.97
2023-12-08T04:54:38.406Z,99889.09
2023-12-08T04:57:39.871Z,99891.00
2023-12-08T05:00:41.324Z,99896.22
2023-12-08T05:03:43.082Z,99886.81
2023-12-08T05:06:45.498Z,99888.66
2023-12-08T05:09:47.047Z,99883.53
2023-12-08T05:12:48.741Z,99884.41
2023-12-08T05:15:50.383Z,99874.91
2023-12-08T05:18:52.590Z,99883.59
2023-12-08T05:21:54.229Z,99881.00
2023-12-08T05:24:56.113Z,99879.31
2023-12-08T05:27:58.083Z,99887.00
2023-12-08T05:31:00.373Z,99879.31
2023-12-08T05:34:01.989Z,99900.91
2023-12-08T05:37:03.682Z,99895.81
2023-12-08T05:40:06.900Z,99908.63
2023-12-08T05:43:08.384Z,99918.28
2023-12-08T05:46:09.840Z,99919.19
2023-12-08T05:49:11.520Z,99911.38
2023-12-08T05:52:13.082Z,99914.16
2023-12-08T05:55:14.597Z,99912.44
2023-12-08T05:58:16.127Z,99904.69
2023-12-08T06:01:19.651Z,99905.50
2023-12-08T06:04:21.976Z,99902.03
2023-12-08T06:07:23.635Z,99912.44
2023-12-08T06:10:25.240Z,99913.38
2023-12-08T06:13:26.741Z,99906.41
2023-12-08T06:16:28.748Z,99901.28
2023-12-08T06:19:31.037Z,99905.69
2023-12-08T06:22:32.932Z,99895.19
2023-12-08T06:25:34.552Z,99887.38
2023-12-08T06:28:36.065Z,99889.06
2023-12-08T06:31:37.907Z,99884.78
2023-12-08T06:34:39.726Z,99881.19
2023-12-08T06:37:41.304Z,99888.19
2023-12-08T06:40:43.014Z,99872.69
2023-12-08T06:43:44.534Z,99880.38
2023-12-08T06:46:46.034Z,99876.03
2023-12-08T06:49:49.099Z,99880.44
2023-12-08T06:52:52.556Z,99884.72
2023-12-08T06:55:54.287Z,99882.88
2023-12-08T06:58:56.397Z,99883.72
2023-12-08T07:01:58.063Z,99882.06
2023-12-08T07:04:59.766Z,99881.94
2023-12-08T07:08:02.174Z,99897.53
2023-12-08T07:11:04.232Z,99888.13
2023-12-08T07:14:05.806Z,99892.47
2023-12-08T07:17:07.642Z,99905.53
2023-12-08T07:20:12.552Z,99901.25
2023-12-08T07:23:14.231Z,99903.81
2023-12-08T07:26:16.739Z,99919.44
2023-12-08T07:29:18.270Z,99914.22
2023-12-08T07:32:20.379Z,99926.38
2023-12-08T07:35:22.062Z,99920.28
2023-12-08T07:38:23.725Z,99924.56
2023-12-08T07:41:26.093Z,99929.84
2023-12-08T07:44:27.628Z,99934.06
2023-12-08T07:47:29.613Z,99934.81
2023-12-08T07:50:31.255Z,99926.19
2023-12-08T07:53:32.800Z,99924.56
2023-12-08T07:56:34.731Z,99939.28
2023-12-08T07:59:36.387Z,99939.28
2023-12-08T08:02:38.273Z,99939.22
2023-12-08T08:05:39.869Z,99946.97
2023-12-08T08:08:41.563Z,99947.03
2023-12-08T08:11:43.093Z,99945.28
2023-12-08T08:14:44.725Z,99945.16
2023-12-08T08:17:46.320Z,99947.78
2023-12-08T08:20:47.789Z,99952.06
2023-12-08T08:23:49.302Z,99940.75
2023-12-08T08:26:50.829Z,99951.19
2023-12-08T08:29:52.361Z,99951.25
2023-12-08T08:32:53.979Z,99951.28
2023-12-08T08:35:55.569Z,99952.03
2023-12-08T08:38:57.278Z,99958.13
2023-12-08T08:41:58.938Z,99965.13
2023-12-08T08:45:00.453Z,99960.84
2023-12-08T08:48:02.836Z,99957.50
2023-12-08T08:51:04.768Z,99968.66
2023-12-08T08:54:06.304Z,99964.38
2023-12-08T08:57:08.026Z,99964.22
2023-12-08T09:00:13.431Z,99963.47
2023-12-08T09:03:15.137Z,99973.00
2023-12-08T09:06:17.168Z,99971.22
2023-12-08T09:09:19.358Z,99978.22
2023-12-08T09:12:21.041Z,99980.84
2023-12-08T09:15:22.574Z,99980.81
2023-12-08T09:18:24.206Z,99985.16
2023-12-08T09:21:25.769Z,99987.72
2023-12-08T09:24:27.773Z,99985.91
2023-12-08T09:27:30.000Z,99979.03
2023-12-08T09:30:32.001Z,99977.22
2023-12-08T09:33:33.756Z,99971.91
2023-12-08T09:36:35.475Z,99982.25
2023-12-08T09:39:38.557Z,99981.25
2023-12-08T09:42:48.538Z,99978.72
2023-12-08T09:45:50.636Z,99984.91
2023-12-08T09:48:55.838Z,99994.41
2023-12-08T09:51:57.763Z,99992.59
2023-12-08T09:54:59.296Z,99985.53
2023-12-08T09:58:02.465Z,99988.19
2023-12-08T10:01:06.437Z,99973.34
2023-12-08T10:04:08.095Z,99969.97
2023-12-08T10:07:11.742Z,99973.50
2023-12-08T10:10:13.261Z,99976.91
2023-12-08T10:13:14.839Z,99976.91
2023-12-08T10:16:16.430Z,99978.63
2023-12-08T10:19:21.743Z,99976.91
2023-12-08T10:22:24.395Z,99964.69
2023-12-08T10:25:28.401Z,99979.56
2023-12-08T10:28:29.854Z,99985.47
2023-12-08T10:31:31.656Z,99967.22
2023-12-08T10:34:33.733Z,99968.16
2023-12-08T10:37:36.470Z,99956.03
2023-12-08T10:40:45.747Z,99961.25
2023-12-08T10:43:47.198Z,99963.81
2023-12-08T10:46:49.618Z,99959.44
2023-12-08T10:49:52.457Z,99953.25
2023-12-08T10:52:54.021Z,99949.84
2023-12-08T10:56:09.506Z,99952.44
2023-12-08T10:59:24.684Z,99959.38
2023-12-08T11:02:31.356Z,99956.78
2023-12-08T11:05:44.242Z,99959.31
2023-12-08T11:08:47.206Z,99951.47
2023-12-08T11:11:55.270Z,99950.63
2023-12-08T11:15:06.434Z,99954.75
2023-12-08T11:18:22.751Z,99959.88
2023-12-08T11:21:25.280Z,99965.88
2023-12-08T11:24:29.375Z,99965.03
2023-12-08T11:28:12.884Z,99961.53
2023-12-08T11:31:40.160Z,99962.16
2023-12-08T11:34:58.982Z,99966.50
2023-12-08T11:38:04.482Z,99975.09
2023-12-08T11:41:13.496Z,99970.78
2023-12-08T11:44:15.074Z,99967.28
2023-12-08T11:47:25.792Z,99970.72
2023-12-08T11:50:27.381Z,99963.66
2023-12-08T11:53:29.150Z,99965.41
2023-12-08T11:56:43.986Z,99974.16
2023-12-08T11:59:45.642Z,99970.50
2023-12-08T12:02:51.400Z,99974.00
2023-12-08T12:05:53.315Z,99978.28
2023-12-08T12:08:57.993Z,99976.41
2023-12-08T12:12:06.836Z,99980.78
2023-12-08T12:15:11.379Z,99978.91
2023-12-08T12:18:14.518Z,99975.38
2023-12-08T12:21:16.609Z,99982.25
2023-12-08T12:24:18.435Z,99977.09
2023-12-08T12:27:20.330Z,99972.84
2023-12-08T12:30:22.487Z,99981.53
2023-12-08T12:33:24.199Z,99994.53
2023-12-08T12:36:25.819Z,99990.88
2023-12-08T12:39:27.442Z,99990.94
2023-12-08T12:42:28.998Z,99986.50
2023-12-08T12:45:32.906Z,99992.56
2023-12-08T12:48:34.669Z,99998.59
2023-12-08T12:51:38.896Z,99998.53
2023-12-08T12:54:43.707Z,100004.50
2023-12-08T12:57:51.248Z,99994.94
2023-12-08T13:00:53.185Z,99994.84
2023-12-08T13:03:55.774Z,99997.41
2023-12-08T13:06:58.127Z,99998.00
2023-12-08T13:10:00.238Z,100006.78
2023-12-08T13:13:01.762Z,100003.19
2023-12-08T13:16:03.824Z,100004.06
2023-12-08T13:19:05.541Z,100004.88
2023-12-08T13:22:07.159Z,100003.91
2023-12-08T13:25:09.411Z,100004.72
2023-12-08T13:28:11.030Z,99996.13
2023-12-08T13:31:12.459Z,99996.88
2023-12-08T13:34:14.329Z,99999.50
2023-12-08T13:37:16.275Z,99998.44
2023-12-08T13:40:17.874Z,100002.03
2023-12-08T13:43:19.554Z,100007.25
2023-12-08T13:46:21.142Z,100011.59
2023-12-08T13:49:23.304Z,100008.09
2023-12-08T13:52:24.842Z,100015.94
2023-12-08T13:55:26.304Z,100011.59
2023-12-08T13:58:27.825Z,100019.38
2023-12-08T14:01:32.258Z,100012.25
2023-12-08T14:04:33.760Z,100008.72
2023-12-08T14:07:35.409Z,100011.50
2023-12-08T14:10:36.942Z,100022.88
2023-12-08T14:13:38.412Z,100033.31
2023-12-08T14:16:39.991Z,100023.81
2023-12-08T14:19:41.505Z,100024.66
2023-12-08T14:22:42.947Z,100035.94
2023-12-08T14:25:44.476Z,100043.78
2023-12-08T14:28:46.114Z,100050.75
2023-12-08T14:31:47.661Z,100054.22
2023-12-08T14:34:49.378Z,100056.84
2023-12-08T14:37:51.762Z,100057.69
2023-12-08T14:40:54.494Z,100059.34
2023-12-08T14:43:56.434Z,100064.53
2023-12-08T14:46:57.953Z,100072.31
2023-12-08T14:49:59.663Z,100078.56
2023-12-08T14:53:01.968Z,100081.22
2023-12-08T14:56:03.940Z,100078.50
2023-12-08T14:59:05.385Z,100083.56
2023-12-08T15:02:07.041Z,100080.34
2023-12-08T15:05:08.817Z,100088.97
2023-12-08T15:08:10.305Z,100092.56
2023-12-08T15:11:12.095Z,100089.81
2023-12-08T15:14:13.554Z,100096.00
2023-12-08T15:17:15.003Z,100095.22
2023-12-08T15:20:16.585Z,100089.16
2023-12-08T15:23:19.131Z,100096.13
2023-12-08T15:26:21.470Z,100094.44
2023-12-08T15:29:22.968Z,100097.97
2023-12-08T15:32:24.565Z,100101.44
2023-12-08T15:35:26.020Z,100106.56
2023-12-08T15:38:27.469Z,100109.16
2023-12-08T15:41:28.942Z,100107.44
2023-12-08T15:44:30.395Z,100116.84
2023-12-08T15:47:32.500Z,100119.44
2023-12-08T15:50:34.063Z,100123.81
2023-12-08T15:53:35.927Z,100124.75
2023-12-08T15:56:38.701Z,100126.53
2023-12-08T15:59:41.759Z,100134.38
2023-12-08T16:02:43.343Z,100137.84
2023-12-08T16:05:46.268Z,100141.31
2023-12-08T16:08:47.919Z,100136.00
2023-12-08T16:11:49.415Z,100134.16
2023-12-08T16:14:50.908Z,100135.97
2023-12-08T16:17:52.915Z,100144.66
2023-12-08T16:20:54.447Z,100150.63
2023-12-08T16:23:57.960Z,100162.84
2023-12-08T16:26:59.475Z,100160.13
2023-12-08T16:30:01.045Z,100161.00
2023-12-08T16:33:02.592Z,100166.22
2023-12-08T16:36:05.305Z,100170.63
2023-12-08T16:39:06.919Z,100181.91
2023-12-08T16:42:08.516Z,100176.69
2023-12-08T16:45:10.617Z,100184.50
2023-12-08T16:48:12.331Z,100179.19
2023-12-08T16:51:14.025Z,100180.91
2023-12-08T16:54:15.568Z,100192.13
2023-12-08T16:57:17.065Z,100188.69
2023-12-08T17:00:19.285Z,100194.84
2023-12-08T17:03:21.201Z,100196.63
2023-12-08T17:06:23.322Z,100196.63
2023-12-08T17:09:25.212Z,100201.84
2023-12-08T17:12:28.840Z,100199.22
2023-12-08T17:15:30.684Z,100197.41
2023-12-08T17:18:33.056Z,100212.19
2023-12-08T17:21:36.793Z,100212.19
2023-12-08T17:24:38.325Z,100217.47
2023-12-08T17:27:39.880Z,100226.19
2023-12-08T17:30:41.780Z,100218.31
2023-12-08T17:33:43.728Z,100224.34
2023-12-08T17:36:45.288Z,100231.28
2023-12-08T17:39:47.033Z,100233.81
2023-12-08T17:42:48.507Z,100237.91
2023-12-08T17:45:50.133Z,100238.47
2023-12-08T17:48:51.691Z,100247.66
2023-12-08T17:51:53.280Z,100247.50
2023-12-08T17:54:56.613Z,100257.97
2023-12-08T17:57:58.065Z,100264.00
2023-12-08T18:00:59.707Z,100262.13
2023-12-08T18:04:01.927Z,100264.69
2023-12-08T18:07:04.370Z,100264.75
2023-12-08T18:10:06.470Z,100261.50
2023-12-08T18:13:07.890Z,100266.75
2023-12-08T18:16:21.073Z,100268.50
2023-12-08T18:19:22.661Z,100272.81
2023-12-08T18:22:24.426Z,100274.38
2023-12-08T18:25:25.965Z,100280.44
2023-12-08T18:28:58.610Z,100284.06
2023-12-08T18:31:49.423Z,100281.25
2023-12-08T18:34:51.004Z,100283.97
2023-12-08T18:37:52.749Z,100286.63
2023-12-08T18:40:54.224Z,100277.00
2023-12-08T18:43:55.847Z,100284.88
2023-12-08T18:46:57.380Z,100283.91
2023-12-08T18:49:58.869Z,100281.25
2023-12-08T18:53:00.340Z,100290.84
2023-12-08T18:56:04.660Z,100291.75
2023-12-08T18:59:06.160Z,100297.06
2023-12-08T19:02:07.950Z,100291.91
2023-12-08T19:05:10.397Z,100293.59
2023-12-08T19:08:11.867Z,100294.53
2023-12-08T19:11:14.227Z,100294.53
2023-12-08T19:14:15.760Z,100301.53
2023-12-08T19:17:17.523Z,100305.94
2023-12-08T19:20:19.183Z,100300.66
2023-12-08T19:23:23.482Z,100304.16
2023-12-08T19:26:24.903Z,100311.91
2023-12-08T19:29:27.582Z,100314.53
2023-12-08T19:32:30.501Z,100312.88
2023-12-08T19:35:31.984Z,100312.16
2023-12-08T19:38:33.889Z,100317.41
2023-12-08T19:41:35.358Z,100320.88
2023-12-08T19:44:36.929Z,100327.84
2023-12-08T19:47:38.409Z,100341.78
2023-12-08T19:50:39.850Z,100340.06
2023-12-08T19:53:41.295Z,100341.72
2023-12-08T19:56:44.345Z,100343.44
2023-12-08T19:59:50.869Z,100345.22
2023-12-08T20:02:52.452Z,100355.94
2023-12-08T20:05:54.018Z,100358.56
2023-12-08T20:08:55.590Z,100362.97
2023-12-08T20:11:57.151Z,100362.16
2023-12-08T20:14:58.764Z,100368.28
2023-12-08T20:18:00.468Z,100365.66
2023-12-08T20:21:06.051Z,100362.16
2023-12-08T20:24:09.771Z,100373.50
2023-12-08T20:27:11.435Z,100371.78
2023-12-08T20:30:15.454Z,100373.53
2023-12-08T20:33:16.995Z,100376.13
2023-12-08T20:36:18.842Z,100382.19
2023-12-08T20:39:20.355Z,100379.53
2023-12-08T20:42:21.964Z,100380.41
2023-12-08T20:45:23.444Z,100397.03
2023-12-08T20:48:25.698Z,100387.47
2023-12-08T20:51:27.322Z,100394.47
2023-12-08T20:54:28.940Z,100387.50
2023-12-08T20:57:30.849Z,100402.38
2023-12-08T21:00:32.525Z,100398.13
2023-12-08T21:03:34.324Z,100401.59
2023-12-08T21:06:36.005Z,100401.53
2023-12-08T21:09:37.591Z,100404.94
2023-12-08T21:12:39.155Z,100400.56
2023-12-08T21:15:40.722Z,100408.34
2023-12-08T21:18:42.458Z,100415.31
2023-12-08T21:21:44.034Z,100416.28
2023-12-08T21:24:45.532Z,100411.06
2023-12-08T21:27:47.084Z,100420.63
2023-12-08T21:30:48.627Z,100412.81
2023-12-08T21:33:50.616Z,100409.28
2023-12-08T21:36:52.270Z,100413.59
2023-12-08T21:39:53.720Z,100418.78
2023-12-08T21:42:57.240Z,100410.94
2023-12-08T21:45:58.888Z,100407.38
2023-12-08T21:49:00.929Z,100410.94
2023-12-08T21:52:03.333Z,100409.22
2023-12-08T21:55:05.170Z,100411.81
2023-12-08T21:58:06.692Z,100403.09
2023-12-08T22:01:08.296Z,100410.94
2023-12-08T22:04:09.862Z,100420.53
2023-12-08T22:07:11.410Z,100423.94
2023-12-08T22:10:12.984Z,100422.13
2023-12-08T22:13:14.481Z,100431.72
2023-12-08T22:16:16.103Z,100429.97
2023-12-08T22:19:17.679Z,100424.69
2023-12-08T22:22:19.418Z,100422.09
2023-12-08T22:25:20.855Z,100414.34
2023-12-08T22:28:24.420Z,100423.09
2023-12-08T22:31:26.041Z,100419.56
2023-12-08T22:34:27.772Z,100418.69
2023-12-08T22:37:29.687Z,100425.59
2023-12-08T22:40:31.346Z,100418.69
2023-12-08T22:43:34.859Z,100426.56
2023-12-08T22:46:36.553Z,100433.53
2023-12-08T22:49:38.057Z,100430.94
2023-12-08T22:52:39.631Z,100440.50
2023-12-08T22:55:41.083Z,100438.69
2023-12-08T22:58:43.191Z,100441.28
2023-12-08T23:01:44.815Z,100452.59
2023-12-08T23:04:46.557Z,100448.22
2023-12-08T23:07:48.917Z,100448.22
2023-12-08T23:10:50.475Z,100454.38
2023-12-08T23:13:52.398Z,100445.69
2023-12-08T23:16:53.852Z,100440.44
2023-12-08T23:19:55.421Z,100450.97
2023-12-08T23:22:56.859Z,100448.38
2023-12-08T23:25:59.182Z,100446.53
2023-12-08T23:29:01.984Z,100453.50
2023-12-08T23:32:04.120Z,100444.81
2023-12-08T23:35:07.792Z,100448.28
2023-12-08T23:38:09.229Z,100443.91
2023-12-08T23:41:10.793Z,100439.47
2023-12-08T23:44:12.377Z,100439.47
2023-12-08T23:47:14.042Z,100431.53
2023-12-08T23:50:15.658Z,100429.84
2023-12-08T23:53:19.662Z,100439.44
2023-12-08T23:56:23.678Z,100437.72
2023-12-08T23:59:26.014Z,100451.66
